Time;durP1;ratioP1;P1;durP2;ratioP2;P2;SDS_P1;SDS_P2;PMS_P1;PMS_P2;Temp;Humidity;BMP_temperature;BMP_pressure;BME280_temperature;BME280_humidity;BME280_pressure;Samples;Min_cycle;Max_cycle;Signal;HPM_P1;HPM_P2
2022/09/30 04:05:32;;;;;;;;;;;;;;;12.94;70.94;95959.78;4206792;27;10275;-73
2022/09/30 04:07:35;;;;;;;;;;;;;;;13.24;70.67;95954.41;4198617;28;5814;-73
2022/09/30 04:09:39;;;;;;;;;;;;;;;13.46;70.14;95962.63;4195290;28;5708;-73
2022/09/30 04:11:42;;;;;;;;;;;;;;;13.63;69.48;95961.69;4196286;28;5814;-73
2022/09/30 04:14:05;;;;;;;;;;;;;;;13.78;69.45;95961.22;4192491;28;5844;-73
2022/09/30 04:16:08;;;;;;;;;;;;;;;13.87;69.22;95961.66;4196227;28;5716;-73
2022/09/30 04:18:11;;;;;;;;;;;;;;;13.93;68.68;95971.34;4199781;28;5899;-74
2022/09/30 04:20:14;;;;;;;;;;;;;;;13.88;68.83;95964.09;4197006;28;5703;-74
2022/09/30 04:22:18;;;;;;;;;;;;;;;13.94;68.79;95979.09;4197961;28;5780;-74
2022/09/30 04:24:27;;;;;;;;;;;;;;;14.02;68.39;95971.78;4196959;28;5762;-73
2022/09/30 04:26:30;;;;;;;;;;;;;;;14.03;68.40;95974.22;4194766;28;5688;-74
2022/09/30 04:28:33;;;;;;;;;;;;;;;14.05;68.51;95984.63;4194678;28;5833;-74
2022/09/30 04:30:37;;;;;;;;;;;;;;;14.08;68.19;95984.16;4194393;28;5741;-73
2022/09/30 04:32:44;;;;;;;;;;;;;;;14.11;68.13;95987.16;4195990;28;5764;-75
2022/09/30 04:34:47;;;;;;;;;;;;;;;14.13;68.14;95995.69;4194011;28;5893;-74
2022/09/30 04:36:49;;;;;;;;;;;;;;;14.14;68.15;95996.50;4199479;28;5703;-73
2022/09/30 04:38:54;;;;;;;;;;;;;;;14.14;67.82;96004.47;4204673;28;5710;-73
2022/09/30 04:40:57;;;;;;;;;;;;;;;14.15;68.00;96000.75;4191779;28;5720;-74
2022/09/30 04:43:00;;;;;;;;;;;;;;;14.19;67.98;96009.91;4198744;28;5690;-74
2022/09/30 04:45:04;;;;;;;;;;;;;;;14.21;67.64;96013.94;4197572;28;5745;-73
2022/09/30 04:47:06;;;;;;;;;;;;;;;14.23;67.86;96017.16;4194454;28;5811;-74
2022/09/30 04:49:09;;;;;;;;;;;;;;;14.24;67.71;96007.34;4195456;28;5706;-74
2022/09/30 04:51:13;;;;;;;;;;;;;;;14.24;67.65;96017.97;4190252;28;5675;-75
2022/09/30 04:53:17;;;;;;;;;;;;;;;14.25;67.50;96009.75;4196487;28;5848;-75
2022/09/30 04:55:24;;;;;;;;;;;;;;;14.29;67.35;96012.78;4187707;28;5728;-75
2022/09/30 04:57:27;;;;;;;;;;;;;;;14.30;67.43;96009.06;4199395;28;5927;-74
2022/09/30 04:59:30;;;;;;;;;;;;;;;14.29;67.29;96012.78;4184552;28;5787;-74
2022/09/30 05:01:33;;;;;;;;;;;;;;;14.29;67.15;96012.78;4192273;28;5740;-74
2022/09/30 05:03:37;;;;;;;;;;;;;;;14.32;67.05;96017.63;4199496;28;5857;-74
2022/09/30 05:05:44;;;;;;;;;;;;;;;14.33;66.96;96024.53;4198581;28;5887;-74
2022/09/30 05:07:47;;;;;;;;;;;;;;;14.28;66.96;96024.44;4185016;28;6014;-74
2022/09/30 05:09:51;;;;;;;;;;;;;;;14.21;67.17;96026.41;4189679;28;5691;-74
2022/09/30 05:11:58;;;;;;;;;;;;;;;14.24;66.85;96020.63;4186701;28;5930;-74
2022/09/30 05:14:01;;;;;;;;;;;;;;;14.26;66.74;96021.19;4170161;28;5840;-74
2022/09/30 05:16:05;;;;;;;;;;;;;;;14.27;66.96;96012.22;4178503;28;5749;-74
2022/09/30 05:18:08;;;;;;;;;;;;;;;14.30;66.85;96011.72;4178338;28;5839;-73
2022/09/30 05:20:11;;;;;;;;;;;;;;;14.31;66.58;96013.34;4186107;28;5768;-73
2022/09/30 05:22:14;;;;;;;;;;;;;;;14.34;66.47;96010.19;4188718;28;5742;-74
2022/09/30 05:24:17;;;;;;;;;;;;;;;14.35;66.56;96014.47;4185286;28;5864;-75
2022/09/30 05:26:20;;;;;;;;;;;;;;;14.38;66.51;96018.50;4175958;28;5711;-73
2022/09/30 05:28:25;;;;;;;;;;;;;;;14.41;66.50;96018.06;4182057;28;5708;-72
2022/09/30 05:30:28;;;;;;;;;;;;;;;14.43;66.11;96015.97;4183144;28;5694;-76
2022/09/30 05:32:31;;;;;;;;;;;;;;;14.43;65.99;96021.28;4176589;28;5745;-73
2022/09/30 05:34:34;;;;;;;;;;;;;;;14.42;66.20;96015.16;4177395;28;6427;-71
2022/09/30 05:36:36;;;;;;;;;;;;;;;14.41;66.28;96021.53;4192215;28;5899;-75
2022/09/30 05:38:39;;;;;;;;;;;;;;;14.40;65.97;96021.75;4187649;28;5103;-74
2022/09/30 05:40:42;;;;;;;;;;;;;;;14.41;65.97;96023.38;4197523;28;5691;-75
2022/09/30 05:42:45;;;;;;;;;;;;;;;14.40;66.03;96033.22;4193348;28;5845;-74
2022/09/30 05:44:50;;;;;;;;;;;;;;;14.44;65.89;96038.84;4194646;28;5690;-73
2022/09/30 05:46:52;;;;;;;;;;;;;;;14.45;65.94;96041.31;4201703;28;5690;-75
2022/09/30 05:48:56;;;;;;;;;;;;;;;14.46;65.83;96036.78;4201183;28;5702;-73
2022/09/30 05:51:00;;;;;;;;;;;;;;;14.49;65.82;96041.63;4197122;28;5716;-74
2022/09/30 05:53:03;;;;;;;;;;;;;;;14.48;65.70;96040.81;4190234;28;5719;-74
2022/09/30 05:55:06;;;;;;;;;;;;;;;14.49;65.81;96046.94;4182125;28;5970;-74
2022/09/30 05:57:10;;;;;;;;;;;;;;;14.48;65.77;96046.16;4195836;28;5720;-74
2022/09/30 05:59:13;;;;;;;;;;;;;;;14.48;65.59;96046.16;4193390;28;5729;-73
2022/09/30 06:01:17;;;;;;;;;;;;;;;14.48;65.53;96046.16;4195867;28;5890;-74
2022/09/30 06:03:20;;;;;;;;;;;;;;;14.47;65.54;96049.84;4193104;28;6654;-73
2022/09/30 06:05:23;;;;;;;;;;;;;;;14.41;65.52;96049.97;4180668;28;5704;-71
2022/09/30 06:07:27;;;;;;;;;;;;;;;14.36;65.43;96053.31;4195099;28;6293;-72
2022/09/30 06:09:29;;;;;;;;;;;;;;;14.33;65.52;96058.31;4184216;28;5752;-70
2022/09/30 06:11:33;;;;;;;;;;;;;;;14.19;65.48;96052.44;4172703;28;5829;-72
2022/09/30 06:13:36;;;;;;;;;;;;;;;14.20;65.73;96046.88;4169046;28;5765;-72
2022/09/30 06:15:40;;;;;;;;;;;;;;;14.27;65.42;96057.41;4194057;28;5767;-72
2022/09/30 06:17:45;;;;;;;;;;;;;;;14.33;65.30;96059.09;4191706;28;5708;-72
2022/09/30 06:19:48;;;;;;;;;;;;;;;14.37;65.05;96065.56;4185496;28;5749;-73
2022/09/30 06:21:51;;;;;;;;;;;;;;;14.40;65.29;96067.78;4190176;28;5723;-72
2022/09/30 06:23:54;;;;;;;;;;;;;;;14.44;65.07;96070.75;4180861;28;5666;-72
2022/09/30 06:25:57;;;;;;;;;;;;;;;14.46;65.24;96069.50;4187991;28;5715;-71
2022/09/30 06:28:01;;;;;;;;;;;;;;;14.46;64.79;96074.84;4183976;28;5298;-72
2022/09/30 06:30:05;;;;;;;;;;;;;;;14.49;64.93;96073.53;4188173;28;7737;-72
2022/09/30 06:32:08;;;;;;;;;;;;;;;14.47;64.82;96071.13;4178350;28;5719;-66
2022/09/30 06:34:12;;;;;;;;;;;;;;;14.50;65.03;96072.53;4185710;28;5930;-68
2022/09/30 06:36:16;;;;;;;;;;;;;;;14.51;64.63;96072.28;4192437;28;5096;-66
2022/09/30 06:38:20;;;;;;;;;;;;;;;14.50;64.64;96077.84;4183488;28;5716;-69
2022/09/30 06:40:23;;;;;;;;;;;;;;;14.50;64.74;96086.63;4182624;28;5922;-66
2022/09/30 06:42:26;;;;;;;;;;;;;;;14.53;64.91;96091.47;4194041;28;5784;-66
2022/09/30 06:44:29;;;;;;;;;;;;;;;14.56;64.64;96091.00;4190620;28;5805;-67
2022/09/30 06:46:32;;;;;;;;;;;;;;;14.59;64.64;96091.56;4192243;28;5809;-67
2022/09/30 06:48:36;;;;;;;;;;;;;;;14.59;64.81;96091.56;4192324;28;6526;-69
2022/09/30 06:50:44;;;;;;;;;;;;;;;14.61;64.68;96094.78;4183954;28;5716;-66
2022/09/30 06:53:05;;;;;;;;;;;;;;;14.64;64.40;96099.66;4200674;28;5805;-68
2022/09/30 06:55:08;;;;;;;;;;;;;;;14.66;64.64;96094.91;4200085;28;5675;-67
2022/09/30 06:57:11;;;;;;;;;;;;;;;14.68;64.51;96092.81;4186144;28;5802;-66
2022/09/30 06:59:15;;;;;;;;;;;;;;;14.70;64.51;96101.38;4198604;28;5691;-67
2022/09/30 07:01:19;;;;;;;;;;;;;;;14.72;64.49;96096.63;4181323;28;5769;-67
2022/09/30 07:03:27;;;;;;;;;;;;;;;14.71;64.18;96106.44;4190945;28;5690;-65
2022/09/30 07:05:30;;;;;;;;;;;;;;;14.74;64.26;96105.19;4184092;28;5804;-66
2022/09/30 07:07:35;;;;;;;;;;;;;;;14.72;64.37;96105.44;4192643;28;5702;-69
2022/09/30 07:09:38;;;;;;;;;;;;;;;14.75;64.20;96106.81;4200197;28;5698;-67
2022/09/30 07:11:41;;;;;;;;;;;;;;;14.76;64.05;96106.56;4198011;28;6540;-67
2022/09/30 07:13:45;;;;;;;;;;;;;;;14.76;64.15;96117.22;4194292;28;5702;-67
2022/09/30 07:15:49;;;;;;;;;;;;;;;14.66;64.16;96110.88;4191928;28;5687;-69
2022/09/30 07:17:52;;;;;;;;;;;;;;;14.65;64.29;96112.72;4200417;28;5687;-67
2022/09/30 07:19:55;;;;;;;;;;;;;;;14.70;64.20;96118.13;4185600;28;5638;-67
2022/09/30 07:22:26;;;;;;;;;;;;;;;14.74;64.06;96111.31;4187959;28;5718;-69
2022/09/30 07:24:24;;;;;;;;;;;;;;;14.76;63.88;96122.53;4198576;28;5706;-68
2022/09/30 07:26:27;;;;;;;;;;;;;;;14.77;63.84;96113.50;4181233;28;5518;-68
2022/09/30 07:28:34;;;;;;;;;;;;;;;14.79;63.56;96124.72;4182575;28;7723;-67
2022/09/30 07:30:36;;;;;;;;;;;;;;;14.85;63.67;96123.78;4173476;28;5704;-66
2022/09/30 07:32:40;;;;;;;;;;;;;;;14.92;63.80;96128.16;4177438;28;5861;-69
2022/09/30 07:34:43;;;;;;;;;;;;;;;14.94;63.70;96129.53;4192641;28;5213;-69
2022/09/30 07:36:46;;;;;;;;;;;;;;;14.98;63.58;96130.69;4189390;28;5736;-70
2022/09/30 07:38:50;;;;;;;;;;;;;;;15.03;63.45;96129.97;4192568;28;5714;-69
2022/09/30 07:40:58;;;;;;;;;;;;;;;15.01;63.33;96140.84;4194465;28;5687;-69
2022/09/30 07:43:02;;;;;;;;;;;;;;;15.02;63.43;96142.47;4190851;28;5750;-67
2022/09/30 07:45:06;;;;;;;;;;;;;;;15.07;63.30;96136.44;4200010;28;5882;-68
2022/09/30 07:47:09;;;;;;;;;;;;;;;15.10;63.22;96144.75;4199799;28;5699;-71
2022/09/30 07:49:23;;;;;;;;;;;;;;;15.11;63.06;96138.38;4187877;28;5733;-69
2022/09/30 07:51:29;;;;;;;;;;;;;;;15.15;63.03;96149.34;4184835;28;5727;-69
2022/09/30 07:53:32;;;;;;;;;;;;;;;15.20;62.92;96148.66;4183863;28;5883;-69
2022/09/30 07:55:35;;;;;;;;;;;;;;;15.18;62.44;96145.44;4185800;28;5706;-70
2022/09/30 07:57:39;;;;;;;;;;;;;;;15.21;62.52;96152.94;4191498;28;5716;-69
2022/09/30 07:59:42;;;;;;;;;;;;;;;15.26;62.33;96167.16;4199834;28;5702;-69
2022/09/30 08:01:46;;;;;;;;;;;;;;;15.31;62.42;96164.59;4199369;28;5710;-70
2022/09/30 08:03:53;;;;;;;;;;;;;;;15.34;62.32;96168.63;4188144;28;5884;-69
2022/09/30 08:05:56;;;;;;;;;;;;;;;15.39;62.05;96174.03;4181109;28;5728;-70
2022/09/30 08:07:58;;;;;;;;;;;;;;;15.43;62.22;96177.84;4195749;28;5682;-70
2022/09/30 08:10:01;;;;;;;;;;;;;;;15.47;62.09;96176.31;4189535;28;5691;-70
2022/09/30 08:12:05;;;;;;;;;;;;;;;15.52;61.76;96181.75;4192376;28;5761;-70
2022/09/30 08:14:14;;;;;;;;;;;;;;;15.54;61.96;96185.00;4185212;28;5787;-70
2022/09/30 08:16:19;;;;;;;;;;;;;;;15.56;61.68;96185.56;4183058;28;5716;-70
2022/09/30 08:18:22;;;;;;;;;;;;;;;15.58;61.74;96194.13;4190873;28;5683;-70
2022/09/30 08:20:28;;;;;;;;;;;;;;;15.60;61.81;96196.56;4191071;28;5813;-70
2022/09/30 08:22:31;;;;;;;;;;;;;;;15.61;61.55;96196.31;4183121;28;5712;-70
2022/09/30 08:24:34;;;;;;;;;;;;;;;15.62;61.41;96197.94;4191034;28;5675;-70
2022/09/30 08:26:37;;;;;;;;;;;;;;;15.64;61.42;96209.19;4183058;28;5716;-71
2022/09/30 08:28:40;;;;;;;;;;;;;;;15.66;61.36;96207.09;4184992;28;5696;-70
2022/09/30 08:30:44;;;;;;;;;;;;;;;15.67;61.35;96218.56;4199608;28;5702;-71
2022/09/30 08:32:47;;;;;;;;;;;;;;;15.69;61.32;96217.25;4199889;28;5699;-71
2022/09/30 08:34:51;;;;;;;;;;;;;;;15.71;61.41;96217.00;4188402;28;5819;-71
2022/09/30 08:36:54;;;;;;;;;;;;;;;15.74;61.14;96229.84;4183037;28;5721;-70
2022/09/30 08:39:02;;;;;;;;;;;;;;;15.78;61.06;96235.53;4183267;28;5708;-69
2022/09/30 08:41:23;;;;;;;;;;;;;;;15.80;60.93;96223.59;4198013;28;5721;-69
2022/09/30 08:43:36;;;;;;;;;;;;;;;15.81;61.06;96233.19;4202803;28;5734;-69
2022/09/30 08:45:51;;;;;;;;;;;;;;;15.86;61.06;96240.50;4194314;28;7332;-70
2022/09/30 08:48:06;;;;;;;;;;;;;;;15.90;60.90;96244.28;4198858;28;5704;-70
2022/09/30 08:50:19;;;;;;;;;;;;;;;15.90;60.93;96244.28;4186090;28;5724;-71
2022/09/30 08:52:26;;;;;;;;;;;;;;;15.92;60.59;96237.66;4186144;28;5927;-70
2022/09/30 08:54:50;;;;;;;;;;;;;;;15.90;60.63;96238.94;4169601;28;5820;-70
2022/09/30 08:56:53;;;;;;;;;;;;;;;15.91;60.51;96238.72;4169428;28;7761;-70
2022/09/30 08:59:02;;;;;;;;;;;;;;;15.92;60.26;96247.50;4177371;28;5691;-69
2022/09/30 09:01:16;;;;;;;;;;;;;;;15.93;60.27;96241.94;4197154;28;5803;-71
2022/09/30 09:03:21;;;;;;;;;;;;;;;15.95;60.07;96250.50;4186098;28;5728;-70
2022/09/30 09:05:38;;;;;;;;;;;;;;;15.96;60.02;96243.31;4185724;28;5803;-70
2022/09/30 09:07:51;;;;;;;;;;;;;;;15.96;59.91;96243.31;4196258;28;5779;-70
2022/09/30 09:10:07;;;;;;;;;;;;;;;15.91;60.14;96248.56;4202458;28;5908;-71
2022/09/30 09:12:22;;;;;;;;;;;;;;;15.87;60.03;96255.44;4193965;28;5678;-70
2022/09/30 09:14:39;;;;;;;;;;;;;;;15.87;59.78;96250.09;4202499;28;5790;-70
2022/09/30 09:16:56;;;;;;;;;;;;;;;15.94;59.76;96259.53;4200023;28;5694;-69
2022/09/30 09:19:07;;;;;;;;;;;;;;;15.96;59.42;96262.78;4189913;28;5711;-70
2022/09/30 09:21:22;;;;;;;;;;;;;;;15.99;59.53;96258.84;4202525;28;5694;-70
2022/09/30 09:23:26;;;;;;;;;;;;;;;16.04;59.43;96256.25;4185631;28;5716;-70
2022/09/30 09:25:30;;;;;;;;;;;;;;;16.09;59.07;96258.22;4185397;28;5727;-70
2022/09/30 09:27:45;;;;;;;;;;;;;;;16.11;59.13;96248.91;4186275;28;5704;-70
2022/09/30 09:29:58;;;;;;;;;;;;;;;16.04;58.92;96248.25;4202362;28;5686;-70
2022/09/30 09:32:10;;;;;;;;;;;;;;;16.05;58.94;96252.53;4197423;28;5824;-70
2022/09/30 09:34:14;;;;;;;;;;;;;;;16.08;58.94;96252.03;4200023;28;5766;-70
2022/09/30 09:36:26;;;;;;;;;;;;;;;16.12;58.74;96250.53;4202224;28;5809;-70
2022/09/30 09:38:35;;;;;;;;;;;;;;;16.15;58.52;96258.03;4201560;28;5754;-69
2022/09/30 09:40:56;;;;;;;;;;;;;;;16.17;58.72;96255.94;4186586;28;5712;-70
2022/09/30 09:43:08;;;;;;;;;;;;;;;16.16;58.53;96264.19;4202093;28;5747;-69
2022/09/30 09:45:22;;;;;;;;;;;;;;;16.14;58.47;96264.44;4187283;28;5716;-70
2022/09/30 09:47:26;;;;;;;;;;;;;;;16.18;58.67;96262.06;4185359;28;5798;-70
2022/09/30 09:49:34;;;;;;;;;;;;;;;16.21;58.62;96272.28;4193430;28;5766;-70
2022/09/30 09:51:45;;;;;;;;;;;;;;;16.24;58.39;96275.28;4201975;28;5694;-69
2022/09/30 09:53:51;;;;;;;;;;;;;;;16.22;58.04;96280.03;4198572;28;5725;-69
2022/09/30 09:55:58;;;;;;;;;;;;;;;16.20;58.23;96282.16;4185209;28;5712;-70
2022/09/30 09:58:06;;;;;;;;;;;;;;;16.17;58.22;96281.78;4185047;28;5708;-70
2022/09/30 10:02:33;;;;;;;;;;;;;;;16.18;58.16;96278.88;4172413;28;5757;-70
2022/09/30 10:04:49;;;;;;;;;;;;;;;16.22;58.07;96288.03;4170542;28;5748;-70
2022/09/30 10:06:54;;;;;;;;;;;;;;;16.20;58.06;96287.47;4193193;28;5786;-70
2022/09/30 10:08:57;;;;;;;;;;;;;;;16.24;57.79;96296.59;4199073;28;5706;-71
2022/09/30 10:11:02;;;;;;;;;;;;;;;16.25;57.71;96300.88;4184509;28;5060;-70
2022/09/30 10:13:05;;;;;;;;;;;;;;;16.26;57.71;96299.84;4184765;28;7687;-70
2022/09/30 10:15:21;;;;;;;;;;;;;;;16.27;57.78;96296.13;4179970;28;5711;-70
2022/09/30 10:17:29;;;;;;;;;;;;;;;16.34;57.72;96293.31;4182206;28;5708;-70
2022/09/30 10:19:34;;;;;;;;;;;;;;;16.36;57.62;96295.72;4177224;28;5739;-70
2022/09/30 10:21:37;;;;;;;;;;;;;;;16.41;57.44;96298.47;4194621;28;5846;-70
2022/09/30 10:23:41;;;;;;;;;;;;;;;16.46;57.37;96293.22;4168655;28;5746;-71
2022/09/30 10:25:55;;;;;;;;;;;;;;;16.48;57.26;96293.78;4184486;28;5836;-70
2022/09/30 10:27:59;;;;;;;;;;;;;;;16.45;57.16;96289.75;4184678;28;6460;-70
2022/09/30 10:30:03;;;;;;;;;;;;;;;16.37;57.11;96286.66;4184636;28;5721;-70
2022/09/30 10:32:09;;;;;;;;;;;;;;;16.32;57.21;96290.06;4184103;28;5735;-70
2022/09/30 10:34:25;;;;;;;;;;;;;;;16.35;57.19;96291.44;4183033;28;6018;-71
2022/09/30 10:36:33;;;;;;;;;;;;;;;16.33;57.06;96296.22;4192292;28;5687;-71
2022/09/30 10:38:44;;;;;;;;;;;;;;;16.35;56.98;96294.91;4185326;28;5841;-71
2022/09/30 10:40:50;;;;;;;;;;;;;;;16.39;56.96;96295.25;4192516;28;5761;-71
2022/09/30 10:42:54;;;;;;;;;;;;;;;16.44;56.79;96298.00;4184652;28;6547;-70
2022/09/30 10:45:00;;;;;;;;;;;;;;;16.47;57.15;96301.00;4184134;28;5803;-70
2022/09/30 10:47:04;;;;;;;;;;;;;;;16.51;56.88;96304.78;4188800;28;5702;-71
2022/09/30 10:49:10;;;;;;;;;;;;;;;16.57;56.70;96303.03;4189156;28;5712;-72
2022/09/30 10:51:23;;;;;;;;;;;;;;;16.61;56.78;96301.47;4184496;28;5708;-71
2022/09/30 10:53:30;;;;;;;;;;;;;;;16.66;56.63;96304.25;4192272;28;5726;-71
2022/09/30 10:55:35;;;;;;;;;;;;;;;16.70;56.52;96300.03;4200471;28;5718;-71
2022/09/30 10:57:38;;;;;;;;;;;;;;;16.74;56.51;96303.84;4200549;28;5683;-72
2022/09/30 10:59:43;;;;;;;;;;;;;;;16.80;56.41;96299.41;4195255;28;5714;-72
2022/09/30 11:01:53;;;;;;;;;;;;;;;16.83;56.41;96305.03;4185206;28;5719;-71
2022/09/30 11:04:05;;;;;;;;;;;;;;;16.86;56.24;96315.22;4191803;28;6416;-70
2022/09/30 11:06:12;;;;;;;;;;;;;;;16.88;56.11;96310.47;4191690;28;5746;-72
2022/09/30 11:08:20;;;;;;;;;;;;;;;16.92;56.13;96316.13;4196614;28;5809;-70
2022/09/30 11:10:34;;;;;;;;;;;;;;;16.92;56.28;96315.31;4200061;28;5699;-71
2022/09/30 11:12:44;;;;;;;;;;;;;;;16.91;56.34;96316.38;4199131;28;5698;-71
2022/09/30 11:14:57;;;;;;;;;;;;;;;16.92;56.13;96320.66;4194566;28;5841;-70
2022/09/30 11:17:10;;;;;;;;;;;;;;;16.92;56.39;96320.66;4194865;28;5810;-71
2022/09/30 11:19:22;;;;;;;;;;;;;;;16.88;56.31;96315.81;4191709;28;5715;-69
2022/09/30 11:21:32;;;;;;;;;;;;;;;16.85;56.27;96313.63;4183292;28;5724;-70
2022/09/30 11:23:40;;;;;;;;;;;;;;;16.84;56.28;96325.34;4185462;28;5790;-70
2022/09/30 11:25:54;;;;;;;;;;;;;;;16.82;56.45;96327.47;4188608;28;5724;-71
2022/09/30 11:28:16;;;;;;;;;;;;;;;16.82;56.23;96330.13;4176066;28;5855;-70
2022/09/30 11:30:23;;;;;;;;;;;;;;;16.81;56.37;96328.50;4189752;28;5702;-71
2022/09/30 11:32:45;;;;;;;;;;;;;;;16.81;56.37;96331.19;4200572;28;5786;-71
2022/09/30 11:34:58;;;;;;;;;;;;;;;16.80;56.27;96332.25;4200321;28;5690;-71
2022/09/30 11:37:07;;;;;;;;;;;;;;;16.80;56.34;96331.44;4200595;28;5812;-71
2022/09/30 11:39:42;;;;;;;;;;;;;;;16.79;56.23;96335.97;4190919;28;5791;-72
2022/09/30 11:41:54;;;;;;;;;;;;;;;16.79;56.15;96335.97;4188526;28;5191;-71
2022/09/30 11:44:11;;;;;;;;;;;;;;;16.77;56.11;96338.06;4181688;28;5723;-71
2022/09/30 11:46:29;;;;;;;;;;;;;;;16.76;56.12;96346.28;4193096;28;5836;-72
2022/09/30 11:48:45;;;;;;;;;;;;;;;16.73;56.12;96338.78;4176980;28;5717;-73
2022/09/30 11:50:57;;;;;;;;;;;;;;;16.70;56.13;96332.06;4183158;28;5719;-73
2022/09/30 11:53:11;;;;;;;;;;;;;;;16.72;56.14;96347.84;4183416;28;5700;-73
2022/09/30 11:55:44;;;;;;;;;;;;;;;16.66;56.21;96341.59;4182336;28;5716;-73
2022/09/30 11:57:57;;;;;;;;;;;;;;;16.66;56.21;96341.59;4181697;28;5803;-73
2022/09/30 12:00:05;;;;;;;;;;;;;;;16.68;56.30;96341.38;4195322;28;5690;-72
2022/09/30 12:02:26;;;;;;;;;;;;;;;16.72;56.13;96343.31;4200277;28;5712;-72
2022/09/30 12:04:32;;;;;;;;;;;;;;;16.75;56.16;96336.66;4191024;28;5736;-72
2022/09/30 12:06:39;;;;;;;;;;;;;;;16.79;56.10;96337.81;4192792;28;5695;-72
2022/09/30 12:08:49;;;;;;;;;;;;;;;16.79;56.34;96343.16;4196733;28;5765;-72
2022/09/30 12:10:55;;;;;;;;;;;;;;;16.83;56.04;96338.94;4179754;28;5692;-73
2022/09/30 12:13:03;;;;;;;;;;;;;;;16.86;56.09;96347.25;4177188;28;5844;-72
2022/09/30 12:15:08;;;;;;;;;;;;;;;16.88;56.02;96339.03;4166872;28;5741;-71
2022/09/30 12:17:20;;;;;;;;;;;;;;;16.92;55.98;96334.00;4198682;28;5687;-72
2022/09/30 12:19:30;;;;;;;;;;;;;;;16.93;55.95;96332.97;4203328;28;5699;-72
2022/09/30 12:21:39;;;;;;;;;;;;;;;16.94;56.03;96334.56;4194280;28;5803;-71
2022/09/30 12:23:46;;;;;;;;;;;;;;;16.94;55.99;96332.72;4185501;28;5898;-71
2022/09/30 12:25:54;;;;;;;;;;;;;;;16.96;56.03;96338.59;4185833;28;5813;-71
2022/09/30 12:30:15;;;;;;;;;;;;;;;16.96;56.13;96337.81;4186059;28;5788;-71
2022/09/30 12:30:29;;;;;;;;;;;;;;;16.97;56.06;96331.41;4170291;28;5749;-71
2022/09/30 12:33:11;;;;;;;;;;;;;;;16.99;56.18;96332.81;4180685;28;5883;-71
2022/09/30 12:35:33;;;;;;;;;;;;;;;17.05;55.96;96333.66;4193081;28;5718;-71
2022/09/30 12:37:51;;;;;;;;;;;;;;;17.07;55.91;96340.38;4193840;28;5747;-72
2022/09/30 12:40:23;;;;;;;;;;;;;;;17.10;55.91;96341.75;4193826;28;5684;-71
2022/09/30 12:42:42;;;;;;;;;;;;;;;17.07;55.75;96348.38;4187490;28;5720;-72
2022/09/30 12:45:16;;;;;;;;;;;;;;;17.05;55.97;96355.03;4186188;28;5743;-72
2022/09/30 12:47:31;;;;;;;;;;;;;;;17.03;56.04;96351.81;4187730;28;5755;-72
2022/09/30 12:49:36;;;;;;;;;;;;;;;17.01;55.92;96353.91;4176781;28;5767;-73
2022/09/30 12:51:43;;;;;;;;;;;;;;;16.99;56.01;96343.47;4195666;28;5679;-72
2022/09/30 12:53:51;;;;;;;;;;;;;;;17.01;56.05;96335.22;4217791;28;5867;-72
2022/09/30 12:56:02;;;;;;;;;;;;;;;17.01;55.96;96329.88;4189677;28;5118;-71
2022/09/30 12:58:14;;;;;;;;;;;;;;;17.02;55.96;96337.66;4186321;28;5712;-71
2022/09/30 13:00:20;;;;;;;;;;;;;;;17.03;55.88;96335.78;4201281;28;5903;-71
2022/09/30 13:02:31;;;;;;;;;;;;;;;17.03;55.72;96336.59;4186226;28;5848;-69
2022/09/30 13:04:37;;;;;;;;;;;;;;;17.03;55.77;96347.28;4184576;28;5858;-70
2022/09/30 13:07:20;;;;;;;;;;;;;;;17.03;55.83;96347.28;4202807;28;5703;-70
2022/09/30 13:09:30;;;;;;;;;;;;;;;17.04;55.65;96348.88;4168994;28;5744;-71
2022/09/30 13:11:40;;;;;;;;;;;;;;;17.03;55.86;96349.94;4185955;28;5702;-83
2022/09/30 13:14:02;;;;;;;;;;;;;;;17.03;55.87;96346.47;4186486;28;5699;-84
2022/09/30 13:16:09;;;;;;;;;;;;;;;17.02;55.73;96347.53;4180097;28;5814;-84
2022/09/30 13:18:58;;;;;;;;;;;;;;;17.05;55.70;96341.69;4176964;28;5753;-83
2022/09/30 13:21:18;;;;;;;;;;;;;;;17.10;55.74;96344.41;4123850;28;5869;-83
2022/09/30 13:23:38;;;;;;;;;;;;;;;17.11;55.67;96341.53;4116855;28;5957;-84
2022/09/30 13:25:53;;;;;;;;;;;;;;;17.14;55.56;96340.22;4115496;28;5916;-83
2022/09/30 13:28:30;;;;;;;;;;;;;;;17.15;55.50;96347.19;4117753;28;5991;-85
2022/09/30 13:30:40;;;;;;;;;;;;;;;17.16;55.55;96338.09;4110972;28;6104;-84
2022/09/30 13:32:46;;;;;;;;;;;;;;;17.17;55.65;96350.41;4111595;28;5854;-84
2022/09/30 13:34:55;;;;;;;;;;;;;;;17.17;55.55;96345.88;4100868;28;5821;-84
2022/09/30 13:37:00;;;;;;;;;;;;;;;17.20;55.62;96347.22;4111207;28;5853;-84
2022/09/30 13:39:18;;;;;;;;;;;;;;;17.18;55.71;96347.47;4108411;28;5848;-85
2022/09/30 13:41:27;;;;;;;;;;;;;;;17.19;55.61;96353.63;4114813;28;5844;-84
2022/09/30 13:43:37;;;;;;;;;;;;;;;17.20;55.82;96360.59;4092033;28;5946;-79
2022/09/30 13:45:43;;;;;;;;;;;;;;;17.21;55.71;96366.75;4112785;28;5870;-85
2022/09/30 13:47:50;;;;;;;;;;;;;;;17.23;55.66;96365.47;4115374;28;5949;-83
2022/09/30 13:50:00;;;;;;;;;;;;;;;17.23;55.70;96360.13;4122775;28;5824;-69
2022/09/30 13:52:07;;;;;;;;;;;;;;;17.26;55.51;96364.16;4096806;28;5929;-69
2022/09/30 13:54:24;;;;;;;;;;;;;;;17.27;55.94;96366.56;4108627;28;5844;-68
2022/09/30 13:56:32;;;;;;;;;;;;;;;17.29;55.51;96363.66;4179538;28;5654;-67
2022/09/30 13:58:51;;;;;;;;;;;;;;;17.28;55.40;96373.53;4179670;28;6569;-69
2022/09/30 14:00:58;;;;;;;;;;;;;;;17.28;55.50;96375.41;4182530;28;5087;-69
2022/09/30 14:03:34;;;;;;;;;;;;;;;17.25;55.34;96374.03;4187127;28;6399;-70
2022/09/30 14:05:59;;;;;;;;;;;;;;;17.24;55.67;96372.41;4182822;28;5737;-70
2022/09/30 14:08:22;;;;;;;;;;;;;;;17.26;55.30;96382.84;4180736;28;5856;-69
2022/09/30 14:10:39;;;;;;;;;;;;;;;17.26;55.32;96375.66;4178693;28;5729;-69
2022/09/30 14:12:55;;;;;;;;;;;;;;;17.27;55.12;96377.25;4184493;28;5747;-68
2022/09/30 14:15:49;;;;;;;;;;;;;;;17.25;55.21;96386.59;4177987;28;6004;-69
2022/09/30 14:18:19;;;;;;;;;;;;;;;17.20;55.04;96389.16;4128287;28;5721;-69
2022/09/30 14:20:38;;;;;;;;;;;;;;;17.22;55.24;96384.41;4127502;28;5845;-69
2022/09/30 14:22:41;;;;;;;;;;;;;;;17.21;55.26;96383.56;4123383;28;5754;-69
2022/09/30 14:24:45;;;;;;;;;;;;;;;17.21;55.08;96382.75;4133102;28;5829;-69
2022/09/30 14:27:07;;;;;;;;;;;;;;;17.19;54.96;96380.34;4123185;28;5720;-69
2022/09/30 14:29:17;;;;;;;;;;;;;;;17.16;54.98;96386.19;4122302;28;5968;-70
2022/09/30 14:31:20;;;;;;;;;;;;;;;17.15;54.86;96392.56;4127065;28;5738;-69
2022/09/30 14:33:27;;;;;;;;;;;;;;;17.12;54.86;96388.53;4131297;28;5723;-70
2022/09/30 14:35:33;;;;;;;;;;;;;;;17.10;54.78;96387.97;4117352;28;5758;-69
2022/09/30 14:37:41;;;;;;;;;;;;;;;17.11;54.78;96394.13;4118114;28;5849;-69
2022/09/30 14:39:47;;;;;;;;;;;;;;;17.10;54.71;96387.16;4118909;28;5935;-70
2022/09/30 14:41:53;;;;;;;;;;;;;;;17.14;54.83;96401.66;4130163;28;5811;-69
2022/09/30 14:44:01;;;;;;;;;;;;;;;17.17;54.80;96404.63;4126648;28;5696;-69
2022/09/30 14:46:08;;;;;;;;;;;;;;;17.20;54.77;96408.66;4135278;28;5703;-69
2022/09/30 14:48:17;;;;;;;;;;;;;;;17.18;54.85;96414.25;4141276;28;5892;-70
2022/09/30 14:50:23;;;;;;;;;;;;;;;17.15;54.73;96416.63;4188250;28;5929;-70
2022/09/30 14:52:41;;;;;;;;;;;;;;;17.14;54.83;96421.16;4174245;28;5964;-70
2022/09/30 14:54:47;;;;;;;;;;;;;;;17.12;54.95;96419.78;4186953;28;5745;-70
2022/09/30 14:56:53;;;;;;;;;;;;;;;17.15;54.80;96421.97;4175823;28;5674;-69
2022/09/30 14:58:58;;;;;;;;;;;;;;;17.12;54.83;96419.78;4171337;28;5733;-68
2022/09/30 15:01:05;;;;;;;;;;;;;;;17.11;54.78;96420.84;4169466;28;5861;-69
2022/09/30 15:03:12;;;;;;;;;;;;;;;17.12;54.95;96417.13;4171575;28;5650;-69
2022/09/30 15:05:17;;;;;;;;;;;;;;;17.17;54.90;96419.84;4181126;28;5720;-68
2022/09/30 15:07:20;;;;;;;;;;;;;;;17.20;54.91;96418.53;4183104;28;5776;-70
2022/09/30 15:09:28;;;;;;;;;;;;;;;17.20;54.91;96418.53;4181736;28;5879;-68
2022/09/30 15:11:32;;;;;;;;;;;;;;;17.20;54.87;96423.88;4178087;28;5852;-69
2022/09/30 15:13:41;;;;;;;;;;;;;;;17.18;54.90;96422.28;4173941;28;5724;-69
2022/09/30 15:15:44;;;;;;;;;;;;;;;17.18;54.83;96422.28;4187837;28;5836;-69
2022/09/30 15:17:47;;;;;;;;;;;;;;;17.22;54.82;96427.16;4174862;28;5866;-67
2022/09/30 15:19:49;;;;;;;;;;;;;;;17.24;54.88;96425.03;4178713;28;5703;-69
2022/09/30 15:21:55;;;;;;;;;;;;;;;17.23;54.90;96416.22;4179029;28;5939;-68
2022/09/30 15:24:01;;;;;;;;;;;;;;;17.23;54.81;96424.22;4179127;28;5708;-68
2022/09/30 15:26:06;;;;;;;;;;;;;;;17.25;54.83;96424.78;4180597;28;5804;-67